Time;durP1;ratioP1;P1;durP2;ratioP2;P2;SDS_P1;SDS_P2;PMS_P1;PMS_P2;Temp;Humidity;BMP_temperature;BMP_pressure;BME280_temperature;BME280_humidity;BME280_pressure;Samples;Min_cycle;Max_cycle;Signal;HPM_P1;HPM_P2
2021/04/22 00:02:22;;;;;;;12.15;1.80;;;10.70;60.80;;;;;;5011953;28;20095;-61
2021/04/22 00:04:48;;;;;;;8.55;1.90;;;10.70;60.40;;;;;;5012330;28;20029;-61
2021/04/22 00:07:16;;;;;;;15.70;3.97;;;10.70;60.60;;;;;;5013980;28;20018;-61
2021/04/22 00:09:42;;;;;;;17.48;1.80;;;10.70;60.30;;;;;;5015827;28;20037;-61
2021/04/22 00:12:09;;;;;;;8.10;1.80;;;10.70;60.40;;;;;;5016070;28;20513;-61
2021/04/22 00:14:35;;;;;;;11.65;2.47;;;10.70;60.50;;;;;;5015642;28;20493;-62
2021/04/22 00:17:01;;;;;;;11.02;1.83;;;10.70;60.20;;;;;;5015781;28;20026;-61
2021/04/22 00:19:27;;;;;;;16.77;2.55;;;10.70;60.20;;;;;;5015969;28;20038;-61
2021/04/22 00:21:52;;;;;;;6.10;1.48;;;10.70;60.40;;;;;;4998182;28;20036;-61
2021/04/22 00:24:18;;;;;;;8.00;1.80;;;10.70;60.80;;;;;;5015645;28;20124;-61
2021/04/22 00:26:43;;;;;;;9.80;1.63;;;10.70;61.60;;;;;;5015903;28;20022;-61
2021/04/22 00:29:09;;;;;;;15.75;1.95;;;10.70;62.10;;;;;;5015898;28;20450;-61
2021/04/22 00:31:35;;;;;;;7.95;1.95;;;10.70;62.60;;;;;;5015253;28;20037;-61
2021/04/22 00:34:00;;;;;;;11.90;2.10;;;10.60;62.90;;;;;;5015789;28;20041;-62
2021/04/22 00:36:26;;;;;;;10.35;1.83;;;10.60;62.70;;;;;;5014895;28;20034;-61
2021/04/22 00:38:52;;;;;;;3.60;0.90;;;10.60;62.50;;;;;;5015943;28;20025;-61
2021/04/22 00:41:17;;;;;;;14.73;1.98;;;10.60;63.10;;;;;;5015771;28;20435;-62
2021/04/22 00:43:43;;;;;;;7.18;1.83;;;10.50;63.20;;;;;;5014848;28;20473;-61
2021/04/22 00:46:09;;;;;;;6.38;1.77;;;10.50;63.20;;;;;;5015735;28;20018;-62
2021/04/22 00:48:34;;;;;;;10.55;1.77;;;10.50;63.40;;;;;;5015310;28;20034;-61
2021/04/22 00:51:06;;;;;;;12.50;2.33;;;10.50;63.30;;;;;;5014862;28;20492;-62
2021/04/22 00:53:36;;;;;;;10.70;2.05;;;10.50;63.20;;;;;;5015649;28;20041;-61
2021/04/22 00:56:02;;;;;;;13.77;2.88;;;10.40;63.30;;;;;;5015191;28;20026;-61
2021/04/22 00:58:28;;;;;;;8.82;2.00;;;10.50;62.70;;;;;;5014974;28;20430;-61
2021/04/22 01:00:56;;;;;;;9.77;2.65;;;10.50;62.90;;;;;;5015163;28;20029;-61
2021/04/22 01:03:24;;;;;;;13.05;2.20;;;10.50;62.70;;;;;;5014775;28;20507;-61
2021/04/22 01:05:54;;;;;;;11.73;2.33;;;10.40;62.70;;;;;;5014832;28;20036;-62
2021/04/22 01:08:21;;;;;;;8.95;1.85;;;10.40;62.50;;;;;;5015381;28;20030;-61
2021/04/22 01:10:47;;;;;;;17.48;2.50;;;10.50;63.00;;;;;;5015133;28;20026;-61
2021/04/22 01:13:13;;;;;;;15.48;2.30;;;10.50;63.00;;;;;;5014429;28;20535;-61
2021/04/22 01:15:39;;;;;;;9.73;1.95;;;10.50;63.00;;;;;;5015041;28;20042;-61
2021/04/22 01:18:06;;;;;;;11.73;2.80;;;10.50;63.10;;;;;;5013651;28;20046;-61
2021/04/22 01:20:39;;;;;;;10.75;1.60;;;10.50;62.80;;;;;;5014674;28;20071;-62
2021/04/22 01:23:06;;;;;;;8.15;2.20;;;10.50;62.70;;;;;;5014752;28;20441;-61
2021/04/22 01:25:36;;;;;;;7.03;1.63;;;10.50;62.50;;;;;;5014197;28;20041;-61
2021/04/22 01:28:03;;;;;;;8.32;1.95;;;10.50;62.10;;;;;;5014710;28;20331;-61
2021/04/22 01:30:38;;;;;;;4.78;1.23;;;10.50;62.10;;;;;;5014635;28;20053;-62
2021/04/22 01:33:04;;;;;;;14.55;2.33;;;10.50;62.00;;;;;;5012614;28;20029;-61
2021/04/22 01:35:33;;;;;;;6.57;1.70;;;10.50;62.00;;;;;;5015409;28;20084;-61
2021/04/22 01:38:00;;;;;;;4.50;1.63;;;10.50;62.10;;;;;;5014098;28;20037;-62
2021/04/22 01:40:27;;;;;;;13.10;2.22;;;10.50;62.50;;;;;;5014336;28;20018;-62
2021/04/22 01:42:52;;;;;;;11.75;2.00;;;10.50;62.70;;;;;;5014463;28;20048;-61
2021/04/22 01:45:18;;;;;;;18.27;2.25;;;10.50;62.60;;;;;;5014272;28;20405;-61
2021/04/22 01:47:45;;;;;;;5.95;1.35;;;10.50;62.60;;;;;;5013996;28;20385;-61
2021/04/22 01:50:15;;;;;;;13.70;2.75;;;10.50;63.00;;;;;;5014343;28;20060;-61
2021/04/22 01:52:41;;;;;;;12.15;2.03;;;10.50;62.50;;;;;;5014167;28;20036;-61
2021/04/22 01:55:10;;;;;;;15.50;2.75;;;10.60;63.60;;;;;;5013888;28;20104;-61
2021/04/22 01:57:37;;;;;;;11.73;1.75;;;10.50;63.00;;;;;;5013992;28;20048;-61
2021/04/22 02:00:09;;;;;;;19.08;2.78;;;10.50;63.30;;;;;;5013961;28;20038;-61
2021/04/22 02:02:38;;;;;;;9.02;2.08;;;10.50;63.40;;;;;;5013619;28;20029;-61
2021/04/22 02:05:05;;;;;;;8.90;2.70;;;10.40;63.30;;;;;;5014083;28;20056;-61
2021/04/22 02:07:31;;;;;;;21.27;2.90;;;10.50;63.40;;;;;;5013701;28;20064;-62
2021/04/22 02:09:56;;;;;;;12.15;3.05;;;10.40;63.50;;;;;;4995776;28;20050;-61
2021/04/22 02:12:22;;;;;;;14.85;2.80;;;10.40;63.20;;;;;;5013856;28;20064;-61
2021/04/22 02:14:48;;;;;;;8.57;2.33;;;10.50;63.30;;;;;;5013310;28;20053;-61
2021/04/22 02:17:13;;;;;;;9.07;1.60;;;10.40;63.20;;;;;;5014076;28;20100;-62
2021/04/22 02:19:39;;;;;;;12.25;2.58;;;10.40;63.30;;;;;;5013708;28;20034;-61
2021/04/22 02:22:06;;;;;;;15.52;3.03;;;10.50;63.00;;;;;;5013373;28;20847;-61
2021/04/22 02:24:31;;;;;;;11.10;1.85;;;10.50;62.30;;;;;;5013825;28;20132;-61
2021/04/22 02:26:57;;;;;;;6.20;1.38;;;10.40;62.40;;;;;;5013375;28;20911;-62
2021/04/22 02:29:23;;;;;;;5.80;1.88;;;10.40;62.50;;;;;;5013205;28;20493;-62
2021/04/22 02:31:48;;;;;;;5.10;1.55;;;10.40;62.60;;;;;;5013687;28;20033;-61
2021/04/22 02:34:14;;;;;;;5.07;1.65;;;10.40;62.90;;;;;;5013614;28;20116;-61
2021/04/22 02:36:40;;;;;;;7.10;2.13;;;10.40;62.50;;;;;;5013047;28;20026;-61
2021/04/22 02:39:06;;;;;;;13.48;2.22;;;10.40;62.30;;;;;;5013597;28;20473;-61
2021/04/22 02:41:32;;;;;;;12.80;2.35;;;10.30;62.00;;;;;;5013693;28;20038;-61
2021/04/22 02:43:57;;;;;;;9.25;2.35;;;10.30;61.60;;;;;;5012933;28;20042;-61
2021/04/22 02:46:23;;;;;;;6.40;1.75;;;10.40;61.80;;;;;;5013529;28;20030;-62
2021/04/22 02:48:49;;;;;;;12.05;1.95;;;10.40;61.50;;;;;;5013152;28;20040;-61
2021/04/22 02:51:14;;;;;;;15.55;2.40;;;10.30;61.10;;;;;;5012948;28;20030;-61
2021/04/22 02:53:40;;;;;;;10.60;1.85;;;10.40;61.10;;;;;;5013355;28;20121;-61
2021/04/22 02:56:06;;;;;;;9.15;2.05;;;10.30;61.00;;;;;;5012882;28;20025;-62
2021/04/22 02:58:32;;;;;;;11.63;2.05;;;10.30;61.20;;;;;;5012971;28;20034;-61
2021/04/22 03:00:57;;;;;;;12.57;2.40;;;10.30;61.30;;;;;;5011759;28;20042;-61
2021/04/22 03:03:23;;;;;;;12.18;2.50;;;10.40;61.00;;;;;;5012893;28;20049;-61
2021/04/22 03:05:50;;;;;;;10.20;1.95;;;10.30;61.00;;;;;;5012602;28;20018;-61
2021/04/22 03:08:15;;;;;;;10.48;2.33;;;10.40;61.20;;;;;;5013165;28;20149;-61
2021/04/22 03:10:43;;;;;;;10.70;2.45;;;10.40;61.00;;;;;;5012883;28;20030;-61
2021/04/22 03:13:10;;;;;;;8.00;1.77;;;10.40;61.10;;;;;;5012486;28;20052;-61
2021/04/22 03:15:36;;;;;;;7.68;1.90;;;10.40;61.00;;;;;;5013215;28;20033;-61
2021/04/22 03:18:03;;;;;;;21.98;2.92;;;10.40;61.40;;;;;;5012192;28;20034;-62
2021/04/22 03:20:29;;;;;;;10.57;1.95;;;10.40;61.60;;;;;;5013147;28;20033;-61
2021/04/22 03:22:56;;;;;;;8.63;1.58;;;10.40;61.60;;;;;;5012525;28;20041;-61
2021/04/22 03:25:24;;;;;;;5.88;2.20;;;10.40;62.00;;;;;;5012424;28;20033;-62
2021/04/22 03:27:50;;;;;;;7.78;2.05;;;10.40;62.00;;;;;;5012771;28;20492;-61
2021/04/22 03:30:18;;;;;;;8.55;1.98;;;10.40;62.20;;;;;;5012309;28;20034;-60
2021/04/22 03:32:43;;;;;;;14.13;2.70;;;10.40;62.30;;;;;;5011732;28;20498;-61
2021/04/22 03:35:11;;;;;;;14.18;2.40;;;10.40;61.90;;;;;;5012199;28;20026;-61
2021/04/22 03:37:37;;;;;;;5.43;1.30;;;10.40;61.80;;;;;;5012389;28;20030;-62
2021/04/22 03:40:05;;;;;;;6.50;2.35;;;10.40;62.00;;;;;;5012303;28;20033;-62
2021/04/22 03:42:31;;;;;;;18.33;4.38;;;10.40;62.20;;;;;;5015088;28;20085;-62
2021/04/22 03:44:56;;;;;;;6.38;2.03;;;10.40;62.30;;;;;;5016679;28;20037;-62
2021/04/22 03:47:22;;;;;;;9.30;1.48;;;10.40;62.30;;;;;;5015975;28;20113;-62
2021/04/22 03:49:48;;;;;;;6.07;1.23;;;10.40;62.50;;;;;;5016688;28;20034;-62
2021/04/22 03:52:13;;;;;;;7.97;1.85;;;10.40;62.70;;;;;;5016170;28;20540;-62
2021/04/22 03:54:39;;;;;;;20.08;2.78;;;10.30;62.00;;;;;;4997813;28;20033;-61
2021/04/22 03:57:05;;;;;;;12.18;2.42;;;10.30;61.80;;;;;;5016111;28;20028;-61
2021/04/22 03:59:31;;;;;;;9.13;2.20;;;10.30;61.50;;;;;;5016027;28;20112;-61
2021/04/22 04:01:57;;;;;;;19.77;2.45;;;10.30;61.60;;;;;;5015571;28;20076;-62
2021/04/22 04:04:23;;;;;;;8.55;2.03;;;10.30;61.10;;;;;;5015845;28;20048;-61
2021/04/22 04:06:49;;;;;;;21.73;2.83;;;10.30;61.30;;;;;;5015752;28;20109;-61
2021/04/22 04:09:14;;;;;;;9.43;1.98;;;10.20;61.10;;;;;;5015437;28;20038;-61
2021/04/22 04:11:40;;;;;;;6.78;1.52;;;10.20;61.20;;;;;;5015938;28;20046;-61
2021/04/22 04:14:06;;;;;;;8.43;2.22;;;10.10;61.20;;;;;;5015978;28;20030;-62
2021/04/22 04:16:31;;;;;;;9.38;2.42;;;10.10;60.20;;;;;;5011032;28;20034;-62
2021/04/22 04:18:57;;;;;;;10.07;1.73;;;10.10;60.00;;;;;;5015912;28;20042;-61
2021/04/22 04:21:23;;;;;;;6.65;1.55;;;10.00;60.00;;;;;;5015289;28;20049;-62
2021/04/22 04:23:50;;;;;;;9.27;2.55;;;10.00;60.30;;;;;;5015881;28;20445;-61
2021/04/22 04:26:16;;;;;;;10.20;2.22;;;10.00;59.70;;;;;;5015724;28;20026;-62
2021/04/22 04:28:42;;;;;;;10.38;1.65;;;10.00;59.50;;;;;;5015381;28;20243;-62
2021/04/22 04:31:08;;;;;;;17.52;2.65;;;10.00;59.90;;;;;;5015651;28;20521;-62
2021/04/22 04:33:34;;;;;;;6.40;1.38;;;10.00;60.10;;;;;;5015466;28;20478;-62
2021/04/22 04:35:59;;;;;;;2.03;1.08;;;10.00;61.20;;;;;;5015311;28;20034;-62
2021/04/22 04:38:25;;;;;;;9.98;2.42;;;10.00;61.00;;;;;;5015559;28;20038;-61
2021/04/22 04:40:51;;;;;;;6.20;1.35;;;10.00;61.00;;;;;;5015525;28;20026;-62
2021/04/22 04:43:17;;;;;;;2.17;1.25;;;10.00;62.10;;;;;;5015136;28;20033;-61
2021/04/22 04:45:42;;;;;;;7.93;2.28;;;10.00;62.10;;;;;;5015631;28;20465;-62
2021/04/22 04:48:08;;;;;;;13.18;2.20;;;10.00;62.20;;;;;;5015339;28;20038;-61
2021/04/22 04:50:34;;;;;;;3.15;1.52;;;10.10;62.80;;;;;;5014765;28;20033;-61
2021/04/22 04:53:00;;;;;;;5.38;1.25;;;10.10;62.40;;;;;;5015650;28;20034;-62
2021/04/22 04:55:26;;;;;;;9.63;1.75;;;10.00;62.30;;;;;;5015275;28;20100;-62
2021/04/22 04:57:51;;;;;;;12.50;2.20;;;10.00;61.70;;;;;;5015108;28;20113;-62
2021/04/22 05:00:17;;;;;;;11.07;2.22;;;10.00;61.10;;;;;;5015390;28;20048;-62
2021/04/22 05:02:47;;;;;;;6.80;1.80;;;10.00;60.90;;;;;;5014887;28;20037;-61
2021/04/22 05:05:14;;;;;;;10.15;2.63;;;10.00;60.90;;;;;;5014725;28;20037;-62
2021/04/22 05:07:40;;;;;;;10.60;2.33;;;10.00;60.70;;;;;;5015279;28;20044;-62
2021/04/22 05:10:07;;;;;;;19.80;3.42;;;10.00;61.20;;;;;;5014823;28;20112;-62
2021/04/22 05:12:34;;;;;;;17.10;2.22;;;10.00;61.30;;;;;;5014261;28;20576;-61
2021/04/22 05:14:59;;;;;;;6.53;2.30;;;10.10;61.10;;;;;;5015235;28;20159;-62
2021/04/22 05:17:25;;;;;;;13.02;2.10;;;10.10;61.20;;;;;;5014536;28;20041;-61
2021/04/22 05:19:51;;;;;;;10.00;1.65;;;10.10;61.20;;;;;;5013449;28;20041;-63
2021/04/22 05:22:16;;;;;;;11.18;2.00;;;10.10;61.20;;;;;;5014737;28;20014;-62
2021/04/22 05:24:45;;;;;;;10.52;2.13;;;10.10;61.50;;;;;;5013553;28;20096;-63
2021/04/22 05:27:11;;;;;;;11.50;2.30;;;10.20;61.70;;;;;;5014444;28;20026;-62
2021/04/22 05:29:36;;;;;;;10.52;1.92;;;10.10;61.40;;;;;;5013992;28;20367;-62
2021/04/22 05:32:03;;;;;;;12.40;2.33;;;10.10;61.40;;;;;;5013666;28;20026;-61
2021/04/22 05:34:30;;;;;;;17.02;2.30;;;10.20;61.00;;;;;;5013365;28;20034;-61
2021/04/22 05:36:55;;;;;;;15.18;3.25;;;10.20;61.10;;;;;;5001139;28;20170;-61
2021/04/22 05:39:22;;;;;;;7.38;2.22;;;10.20;60.80;;;;;;4975697;28;20084;-61
2021/04/22 05:41:49;;;;;;;10.52;2.75;;;10.20;60.50;;;;;;4992744;28;20030;-61
2021/04/22 05:44:15;;;;;;;15.20;2.30;;;10.20;60.50;;;;;;4991420;28;20035;-61
2021/04/22 05:46:42;;;;;;;8.88;1.80;;;10.20;60.70;;;;;;4994437;28;20053;-61
2021/04/22 05:49:07;;;;;;;9.90;2.28;;;10.20;60.60;;;;;;5006544;28;20061;-61
2021/04/22 05:51:33;;;;;;;14.68;2.35;;;10.20;60.70;;;;;;5005118;28;20064;-61
2021/04/22 05:53:58;;;;;;;7.65;1.70;;;10.30;60.60;;;;;;5002347;28;20030;-61
2021/04/22 05:56:25;;;;;;;6.35;1.83;;;10.30;60.50;;;;;;4992655;28;20065;-61
2021/04/22 05:58:51;;;;;;;15.48;2.83;;;10.30;60.60;;;;;;4993200;28;20486;-62
2021/04/22 06:01:17;;;;;;;9.88;2.47;;;10.30;60.80;;;;;;4993267;28;20018;-62
2021/04/22 06:03:42;;;;;;;11.38;2.88;;;10.30;60.80;;;;;;4995977;28;20141;-61
2021/04/22 06:06:08;;;;;;;14.82;2.22;;;10.30;61.00;;;;;;4999802;28;20026;-62
2021/04/22 06:08:34;;;;;;;4.93;1.55;;;10.30;60.70;;;;;;4994404;28;20032;-62
2021/04/22 06:10:59;;;;;;;15.93;2.65;;;10.30;60.70;;;;;;4995854;28;20489;-62
2021/04/22 06:13:25;;;;;;;9.43;1.77;;;10.30;60.70;;;;;;5005993;28;20050;-61
2021/04/22 06:15:50;;;;;;;11.70;2.00;;;10.30;61.00;;;;;;5013251;28;20433;-62
2021/04/22 06:18:16;;;;;;;7.30;1.02;;;10.30;61.20;;;;;;5012301;28;20037;-61
2021/04/22 06:20:42;;;;;;;3.88;1.58;;;10.30;62.10;;;;;;4996473;28;20382;-61
2021/04/22 06:23:08;;;;;;;4.07;1.33;;;10.30;61.50;;;;;;4991893;28;20041;-62
2021/04/22 06:25:33;;;;;;;12.43;2.03;;;10.30;62.10;;;;;;4995358;28;20042;-61
2021/04/22 06:27:59;;;;;;;4.75;1.50;;;10.30;62.40;;;;;;4996619;28;20034;-62
2021/04/22 06:30:26;;;;;;;12.68;2.03;;;10.30;62.60;;;;;;4994948;28;20493;-61
2021/04/22 06:32:53;;;;;;;4.28;1.65;;;10.30;62.40;;;;;;5009690;28;20029;-61
2021/04/22 06:35:19;;;;;;;7.22;1.63;;;10.40;62.30;;;;;;5007769;28;20033;-62
2021/04/22 06:37:45;;;;;;;8.60;2.00;;;10.40;62.30;;;;;;4995979;28;20019;-61
2021/04/22 06:40:18;;;;;;;5.70;1.45;;;10.40;62.20;;;;;;4997319;28;20515;-62
2021/04/22 06:42:45;;;;;;;10.15;2.15;;;10.40;62.30;;;;;;4994019;28;20445;-64
2021/04/22 06:45:13;;;;;;;2.60;1.05;;;10.40;62.00;;;;;;5013036;28;20109;-62
2021/04/22 06:47:40;;;;;;;13.88;1.67;;;10.40;62.50;;;;;;5007530;28;20109;-62
2021/04/22 06:50:07;;;;;;;9.85;1.90;;;10.40;62.50;;;;;;5009646;28;20500;-61
2021/04/22 06:52:33;;;;;;;8.80;2.38;;;10.40;62.40;;;;;;5012689;28;20041;-61
2021/04/22 06:54:58;;;;;;;12.85;2.20;;;10.40;62.20;;;;;;5012951;28;20466;-61
2021/04/22 06:57:24;;;;;;;13.02;2.72;;;10.40;62.00;;;;;;5012273;28;20037;-61
2021/04/22 06:59:49;;;;;;;4.93;1.45;;;10.40;61.60;;;;;;5012954;28;20030;-61
2021/04/22 07:02:15;;;;;;;12.02;2.17;;;10.40;62.00;;;;;;5012881;28;20095;-61
2021/04/22 07:04:41;;;;;;;14.43;1.55;;;10.40;61.70;;;;;;5012592;28;20046;-62
2021/04/22 07:07:08;;;;;;;7.82;1.90;;;10.40;61.70;;;;;;5013039;28;20044;-61
2021/04/22 07:09:35;;;;;;;7.38;1.80;;;10.40;61.40;;;;;;5012238;28;20030;-61
2021/04/22 07:12:02;;;;;;;8.32;1.67;;;10.40;61.60;;;;;;5012321;28;20050;-61
2021/04/22 07:14:28;;;;;;;8.40;1.48;;;10.50;62.00;;;;;;5012511;28;20489;-61
2021/04/22 07:16:54;;;;;;;6.97;1.50;;;10.50;61.20;;;;;;5011740;28;20033;-62
2021/04/22 07:19:20;;;;;;;8.07;1.95;;;10.40;61.20;;;;;;5012227;28;20049;-61
2021/04/22 07:21:46;;;;;;;11.68;1.77;;;10.50;61.50;;;;;;5012527;28;20021;-61
2021/04/22 07:24:11;;;;;;;15.82;2.40;;;10.50;61.60;;;;;;5012487;28;20046;-61
2021/04/22 07:26:37;;;;;;;9.38;1.92;;;10.50;61.30;;;;;;4985222;28;20030;-61
2021/04/22 07:29:04;;;;;;;10.10;1.88;;;10.50;61.40;;;;;;5012550;28;20046;-61
2021/04/22 07:31:29;;;;;;;8.50;1.70;;;10.60;62.20;;;;;;5012229;28;20034;-61
2021/04/22 07:33:55;;;;;;;6.45;1.48;;;10.60;61.30;;;;;;5012679;28;20034;-61
2021/04/22 07:36:21;;;;;;;9.48;1.50;;;10.70;61.70;;;;;;5012169;28;20054;-60
2021/04/22 07:38:48;;;;;;;1.63;1.17;;;10.70;62.00;;;;;;5012078;28;20029;-61
2021/04/22 07:41:14;;;;;;;8.15;1.67;;;10.70;62.80;;;;;;5012584;28;20062;-62
2021/04/22 07:43:40;;;;;;;13.05;2.25;;;10.70;64.40;;;;;;5012085;28;20473;-63
2021/04/22 07:46:07;;;;;;;4.65;0.98;;;10.70;64.40;;;;;;5011728;28;20474;-61
2021/04/22 07:48:33;;;;;;;8.30;2.83;;;10.70;63.50;;;;;;5012303;28;20038;-62
2021/04/22 07:50:59;;;;;;;8.32;1.63;;;10.70;63.30;;;;;;5011787;28;20083;-62
2021/04/22 07:53:25;;;;;;;7.05;1.50;;;10.80;63.90;;;;;;5012051;28;20084;-71
2021/04/22 07:55:51;;;;;;;4.85;1.58;;;10.80;64.30;;;;;;5012374;28;20030;-62
2021/04/22 07:58:17;;;;;;;13.25;2.10;;;10.80;64.40;;;;;;5011857;28;20032;-62
2021/04/22 08:00:45;;;;;;;4.90;1.98;;;10.90;64.80;;;;;;5011700;28;20049;-61
2021/04/22 08:03:13;;;;;;;3.53;1.45;;;10.80;64.60;;;;;;5011798;28;20081;-61
2021/04/22 08:05:40;;;;;;;9.20;2.40;;;10.90;64.20;;;;;;5011480;28;20041;-62
2021/04/22 08:08:10;;;;;;;8.25;1.63;;;10.90;64.10;;;;;;5011195;28;20116;-61
2021/04/22 08:10:42;;;;;;;7.63;1.70;;;10.90;64.60;;;;;;5011596;28;20022;-61
2021/04/22 08:13:09;;;;;;;6.55;1.75;;;10.90;64.20;;;;;;5011944;28;20393;-61
2021/04/22 08:15:37;;;;;;;10.88;2.30;;;10.90;64.40;;;;;;5012106;28;20531;-62
2021/04/22 08:18:03;;;;;;;7.85;1.70;;;11.00;64.70;;;;;;5011745;28;20122;-61
2021/04/22 08:20:29;;;;;;;8.35;3.58;;;11.00;64.90;;;;;;5011891;28;20037;-61
2021/04/22 08:22:57;;;;;;;17.52;2.25;;;11.00;65.00;;;;;;5011320;28;20030;-61
2021/04/22 08:25:27;;;;;;;6.72;1.25;;;11.00;64.40;;;;;;5011762;28;20417;-61
2021/04/22 08:27:55;;;;;;;8.18;1.80;;;11.00;64.80;;;;;;5012987;28;20489;-61
2021/04/22 08:30:30;;;;;;;3.60;1.25;;;11.10;64.50;;;;;;5015624;28;20037;-61
2021/04/22 08:32:58;;;;;;;5.80;1.85;;;11.10;64.50;;;;;;5015574;28;20030;-61
2021/04/22 08:35:24;;;;;;;4.93;1.98;;;11.10;65.20;;;;;;5014983;28;20083;-61
2021/04/22 08:37:50;;;;;;;8.20;1.25;;;11.20;64.60;;;;;;5015860;28;20045;-61
2021/04/22 08:40:17;;;;;;;16.10;1.80;;;11.20;65.00;;;;;;5015293;28;20026;-61
2021/04/22 08:42:43;;;;;;;6.15;1.30;;;11.20;64.10;;;;;;5014814;28;20481;-61
2021/04/22 08:45:12;;;;;;;3.83;1.42;;;11.30;63.90;;;;;;5015723;28;20038;-61
2021/04/22 08:47:39;;;;;;;5.78;1.65;;;11.20;63.10;;;;;;5001589;28;20034;-61
2021/04/22 08:50:11;;;;;;;5.53;1.55;;;11.20;61.60;;;;;;5014941;28;20396;-61
2021/04/22 08:52:36;;;;;;;4.45;1.27;;;11.20;61.60;;;;;;5015322;28;20038;-61
2021/04/22 08:55:06;;;;;;;5.60;1.63;;;11.20;61.60;;;;;;5015565;28;20036;-61
2021/04/22 08:57:32;;;;;;;2.28;1.13;;;11.20;60.50;;;;;;5014644;28;20042;-61
2021/04/22 08:59:57;;;;;;;11.27;2.00;;;11.20;61.80;;;;;;5015102;28;20066;-61
2021/04/22 09:02:23;;;;;;;10.52;2.15;;;11.30;62.00;;;;;;5014984;28;20101;-61
2021/04/22 09:04:49;;;;;;;8.63;1.88;;;11.30;61.90;;;;;;5014722;28;20038;-61
2021/04/22 09:07:15;;;;;;;2.88;0.98;;;11.40;61.80;;;;;;5015100;28;20432;-61
2021/04/22 09:09:42;;;;;;;2.70;1.33;;;11.40;62.30;;;;;;5014568;28;20069;-61
2021/04/22 09:12:18;;;;;;;3.08;1.02;;;11.40;62.20;;;;;;5014888;28;20501;-61
2021/04/22 09:15:11;;;;;;;13.23;3.10;;;11.40;61.70;;;;;;5014392;28;20102;-61
2021/04/22 09:17:38;;;;;;;8.93;1.70;;;11.50;61.60;;;;;;5011650;28;20092;-61
2021/04/22 09:20:08;;;;;;;7.13;1.80;;;11.50;61.80;;;;;;5014965;28;20034;-61
2021/04/22 09:22:41;;;;;;;9.88;1.98;;;11.60;61.70;;;;;;5014715;28;20026;-61
2021/04/22 09:25:19;;;;;;;1.95;1.08;;;11.60;61.50;;;;;;5001214;28;20038;-61
2021/04/22 09:27:45;;;;;;;9.20;1.70;;;11.60;62.10;;;;;;5014249;28;20421;-61
2021/04/22 09:30:15;;;;;;;6.82;1.85;;;11.70;63.10;;;;;;5014785;28;20041;-61
2021/04/22 09:32:40;;;;;;;8.73;1.70;;;11.80;62.60;;;;;;5014199;28;20500;-61
2021/04/22 09:35:09;;;;;;;5.05;1.52;;;11.80;62.20;;;;;;5014138;28;20030;-61
2021/04/22 09:37:43;;;;;;;4.50;1.08;;;11.80;63.00;;;;;;5014454;28;20088;-61
2021/04/22 09:40:19;;;;;;;3.28;1.20;;;11.80;62.20;;;;;;5012688;28;20049;-61
2021/04/22 09:42:47;;;;;;;8.27;1.33;;;11.80;62.10;;;;;;5014471;28;20030;-61
2021/04/22 09:45:15;;;;;;;7.22;1.50;;;11.90;63.30;;;;;;5013952;28;20367;-61
2021/04/22 09:47:41;;;;;;;8.80;1.48;;;11.90;62.50;;;;;;5014350;28;20446;-61
2021/04/22 09:50:13;;;;;;;6.03;1.30;;;11.80;61.40;;;;;;5014053;28;20397;-62
2021/04/22 09:52:41;;;;;;;9.85;3.45;;;11.90;62.50;;;;;;5013621;28;20060;-63
2021/04/22 09:55:17;;;;;;;7.30;2.00;;;11.90;59.70;;;;;;5013845;28;20022;-65
2021/04/22 09:57:45;;;;;;;12.52;1.98;;;11.80;60.10;;;;;;5013412;28;20037;-63
2021/04/22 10:00:22;;;;;;;10.38;2.20;;;11.90;61.00;;;;;;5013278;28;20377;-63
2021/04/22 10:02:55;;;;;;;9.73;1.55;;;11.90;59.20;;;;;;5013200;28;20030;-64
2021/04/22 10:05:35;;;;;;;2.75;1.27;;;11.90;60.80;;;;;;5013986;28;20057;-67
2021/04/22 10:08:07;;;;;;;9.88;2.15;;;11.90;62.20;;;;;;5006124;28;20037;-62
2021/04/22 10:10:33;;;;;;;5.60;1.70;;;12.00;61.40;;;;;;5013405;28;20109;-61
2021/04/22 10:13:02;;;;;;;12.70;2.75;;;12.00;62.30;;;;;;5013081;28;20073;-61
2021/04/22 10:15:31;;;;;;;7.85;1.75;;;12.10;62.30;;;;;;5013683;28;20034;-61
2021/04/22 10:17:58;;;;;;;11.88;2.45;;;12.20;62.50;;;;;;5012970;28;20038;-62
2021/04/22 10:20:26;;;;;;;8.40;1.80;;;12.20;62.50;;;;;;5013095;28;20033;-61
2021/04/22 10:22:53;;;;;;;13.60;2.10;;;12.20;62.20;;;;;;4995625;28;20037;-61
2021/04/22 10:25:31;;;;;;;3.63;1.38;;;12.20;61.80;;;;;;5012682;28;20038;-61
2021/04/22 10:28:14;;;;;;;6.57;1.40;;;12.30;62.50;;;;;;5012735;28;20033;-62
2021/04/22 10:30:43;;;;;;;2.97;1.30;;;12.30;63.20;;;;;;5013163;28;20060;-62
2021/04/22 10:33:12;;;;;;;12.80;2.38;;;12.40;62.70;;;;;;5012786;28;20042;-62
2021/04/22 10:35:41;;;;;;;1.83;1.10;;;12.40;61.70;;;;;;5012384;28;20046;-62
2021/04/22 10:38:07;;;;;;;7.20;1.73;;;12.40;61.30;;;;;;5012426;28;20022;-62
2021/04/22 10:40:36;;;;;;;13.55;2.10;;;12.40;60.90;;;;;;5013148;28;20443;-62
2021/04/22 10:43:05;;;;;;;5.40;1.80;;;12.50;60.90;;;;;;5012656;28;20037;-65
2021/04/22 10:45:32;;;;;;;11.35;1.98;;;12.50;61.10;;;;;;5012656;28;20034;-63
2021/04/22 10:47:58;;;;;;;7.72;1.50;;;12.60;61.20;;;;;;5013038;28;20030;-65
2021/04/22 10:50:45;;;;;;;2.45;1.10;;;12.60;61.10;;;;;;5012563;28;20109;-65
2021/04/22 10:53:17;;;;;;;11.10;1.75;;;12.60;61.50;;;;;;5012742;28;20207;-65
2021/04/22 10:55:45;;;;;;;15.20;2.42;;;12.70;61.30;;;;;;5012185;28;20030;-66
2021/04/22 10:58:23;;;;;;;11.10;1.67;;;12.70;60.50;;;;;;5013335;28;20048;-66
2021/04/22 11:01:03;;;;;;;7.97;2.58;;;12.80;60.60;;;;;;5012669;28;20022;-66
2021/04/22 11:03:38;;;;;;;3.15;1.60;;;12.80;60.70;;;;;;5012399;28;20081;-66
2021/04/22 11:06:08;;;;;;;10.60;2.75;;;12.80;60.50;;;;;;5012679;28;20109;-66
2021/04/22 11:08:40;;;;;;;7.22;1.80;;;12.80;61.20;;;;;;5012961;28;20036;-66
2021/04/22 11:11:25;;;;;;;9.93;2.58;;;12.90;61.10;;;;;;5011765;28;20026;-63
2021/04/22 11:14:14;;;;;;;6.88;2.03;;;12.90;61.40;;;;;;5011865;28;20481;-63
2021/04/22 11:17:01;;;;;;;8.93;1.95;;;12.90;60.60;;;;;;5011399;28;20050;-63
2021/04/22 11:19:48;;;;;;;7.88;1.63;;;12.90;60.70;;;;;;5012013;28;20508;-63
2021/04/22 11:22:19;;;;;;;3.97;1.20;;;13.00;61.30;;;;;;5012456;28;20449;-62
2021/04/22 11:24:58;;;;;;;6.78;2.20;;;13.00;61.30;;;;;;5011878;28;20500;-66
2021/04/22 11:27:26;;;;;;;9.55;1.77;;;12.90;58.60;;;;;;5011942;28;20070;-67
2021/04/22 11:29:54;;;;;;;3.35;1.27;;;12.90;60.00;;;;;;5010945;28;20084;-67
2021/04/22 11:32:29;;;;;;;5.60;1.70;;;13.00;60.80;;;;;;4994857;28;20077;-66
2021/04/22 11:35:17;;;;;;;10.80;1.35;;;13.00;60.20;;;;;;4997998;28;20033;-67
2021/04/22 11:37:47;;;;;;;7.75;1.65;;;13.10;61.00;;;;;;5012326;28;20025;-67
2021/04/22 11:40:22;;;;;;;7.00;1.90;;;13.10;60.20;;;;;;5012284;28;20034;-66
2021/04/22 11:42:50;;;;;;;5.13;1.48;;;13.10;60.20;;;;;;5012494;28;20032;-62
2021/04/22 11:45:22;;;;;;;10.65;1.67;;;13.20;60.80;;;;;;5011599;28;20092;-63
2021/04/22 11:48:03;;;;;;;5.13;1.50;;;13.10;60.30;;;;;;5010436;28;20026;-63
2021/04/22 11:50:53;;;;;;;10.32;1.63;;;13.20;59.30;;;;;;5010071;28;20504;-62
2021/04/22 11:53:22;;;;;;;10.05;2.10;;;13.20;59.70;;;;;;5011034;28;20034;-62
2021/04/22 11:55:53;;;;;;;8.05;2.13;;;13.20;60.30;;;;;;5011776;28;20347;-62
2021/04/22 11:58:24;;;;;;;9.50;1.52;;;13.20;60.30;;;;;;5012016;28;20370;-62
2021/04/22 12:00:55;;;;;;;11.02;2.05;;;13.20;61.00;;;;;;5011613;28;20037;-62
2021/04/22 12:03:28;;;;;;;11.02;1.77;;;13.20;61.00;;;;;;5013622;28;20497;-63
2021/04/22 12:05:55;;;;;;;10.52;2.03;;;13.20;60.90;;;;;;5015243;28;20046;-62
2021/04/22 12:08:37;;;;;;;11.85;1.70;;;13.30;60.80;;;;;;5016399;28;20029;-63
2021/04/22 12:11:06;;;;;;;12.27;2.03;;;13.30;60.20;;;;;;5015659;28;20069;-62
2021/04/22 12:13:35;;;;;;;6.93;1.35;;;13.40;60.00;;;;;;5015370;28;20084;-62
2021/04/22 12:16:04;;;;;;;11.48;2.13;;;13.30;60.60;;;;;;5015196;28;20087;-62
2021/04/22 12:18:38;;;;;;;8.13;1.92;;;13.40;60.50;;;;;;5015821;28;20100;-62
2021/04/22 12:21:10;;;;;;;9.95;1.73;;;13.30;58.70;;;;;;5015443;28;20034;-62
2021/04/22 12:23:59;;;;;;;9.52;1.92;;;13.30;59.30;;;;;;5015485;28;20394;-62
2021/04/22 12:26:27;;;;;;;10.32;1.90;;;13.30;59.50;;;;;;5015792;28;20041;-62
2021/04/22 12:29:00;;;;;;;10.50;2.00;;;13.40;59.70;;;;;;5015121;28;20517;-62
2021/04/22 12:31:28;;;;;;;3.45;1.52;;;13.40;59.40;;;;;;5012607;28;20497;-62
2021/04/22 12:33:56;;;;;;;8.10;1.70;;;13.40;59.40;;;;;;5004346;28;20073;-62
2021/04/22 12:36:22;;;;;;;4.45;1.45;;;13.40;60.00;;;;;;5015494;28;20478;-63
2021/04/22 12:38:47;;;;;;;8.70;1.50;;;13.50;60.70;;;;;;5014642;28;20109;-62
2021/04/22 12:41:19;;;;;;;7.20;1.83;;;13.50;60.90;;;;;;5012993;28;20033;-65
2021/04/22 12:43:48;;;;;;;2.38;1.23;;;13.50;60.80;;;;;;5015190;28;20042;-63
2021/04/22 12:46:26;;;;;;;13.65;1.85;;;13.60;61.20;;;;;;5015043;28;20029;-63
2021/04/22 12:48:58;;;;;;;6.53;1.70;;;13.60;61.10;;;;;;5014886;28;20076;-63